Time;durP1;ratioP1;P1;durP2;ratioP2;P2;SDS_P1;SDS_P2;PMS_P1;PMS_P2;Temp;Humidity;BMP_temperature;BMP_pressure;BME280_temperature;BME280_humidity;BME280_pressure;Samples;Min_cycle;Max_cycle;Signal;HPM_P1;HPM_P2
2021/12/19 00:00:58;;;;;;;;;;;1.60;99.90;;;;;;5056944;28;20029;-84
2021/12/19 00:08:51;;;;;;;16.40;8.80;;;1.60;99.90;;;;;;5057319;28;20009;-84
2021/12/19 00:11:26;;;;;;;19.10;9.68;;;1.50;99.90;;;;;;5058816;28;20056;-76
2021/12/19 00:13:52;;;;;;;18.08;8.43;;;1.50;99.90;;;;;;5041950;28;20046;-75
2021/12/19 00:16:19;;;;;;;24.42;12.00;;;1.40;99.90;;;;;;5057734;28;20030;-83
2021/12/19 00:29:07;;;;;;;31.92;14.88;;;1.40;99.90;;;;;;5519352;22;20042;-83
2021/12/19 00:31:33;;;;;;;28.20;13.10;;;1.40;99.90;;;;;;5018948;28;20033;-83
2021/12/19 00:34:00;;;;;;;27.60;12.07;;;1.20;99.90;;;;;;5020089;28;20034;-83
2021/12/19 00:36:26;;;;;;;23.55;11.52;;;1.30;99.90;;;;;;5020274;28;20031;-83
2021/12/19 00:38:53;;;;;;;24.20;11.02;;;1.30;99.90;;;;;;5002607;28;20026;-84
2021/12/19 00:41:19;;;;;;;26.20;12.20;;;1.20;99.90;;;;;;5019828;28;20045;-84
2021/12/19 00:43:52;;;;;;;37.28;17.02;;;1.30;99.90;;;;;;5004888;28;20037;-83
2021/12/19 00:46:19;;;;;;;36.25;16.35;;;1.20;99.90;;;;;;5021838;28;20021;-84
2021/12/19 00:48:50;;;;;;;27.00;13.60;;;1.20;99.90;;;;;;5004887;28;20038;-84
2021/12/19 00:51:22;;;;;;;23.95;12.13;;;1.10;99.90;;;;;;5021747;28;20009;-84
2021/12/19 00:53:49;;;;;;;30.10;14.10;;;1.00;99.90;;;;;;5021417;28;20050;-83
2021/12/19 00:56:14;;;;;;;38.45;18.55;;;1.20;99.90;;;;;;5004653;28;20014;-84
2021/12/19 00:58:41;;;;;;;47.75;21.42;;;1.10;99.90;;;;;;5021459;28;20022;-84
2021/12/19 01:01:08;;;;;;;45.78;20.05;;;1.20;99.90;;;;;;5020985;28;20046;-84
2021/12/19 01:03:36;;;;;;;55.33;24.42;;;1.20;99.90;;;;;;5021293;28;20011;-84
2021/12/19 01:06:02;;;;;;;79.80;34.40;;;1.20;99.90;;;;;;5004592;28;20069;-83
2021/12/19 01:08:32;;;;;;;42.00;18.73;;;1.30;99.90;;;;;;5003973;28;20037;-83
2021/12/19 01:10:58;;;;;;;36.55;16.45;;;1.30;99.90;;;;;;5004145;28;20041;-83
2021/12/19 01:13:24;;;;;;;;;;;1.40;99.90;;;;;;5004526;28;20030;-84
2021/12/19 01:15:50;;;;;;;17.27;7.88;;;1.40;99.90;;;;;;5021805;28;19893;-84
2021/12/19 01:20:52;;;;;;;15.88;7.70;;;1.40;99.90;;;;;;6037330;22;20009;-84
2021/12/19 01:23:17;;;;;;;;;;;1.40;99.90;;;;;;5003070;28;20026;-83
2021/12/19 01:25:43;;;;;;;21.15;9.73;;;1.40;99.90;;;;;;5017068;28;19921;-82
2021/12/19 01:28:09;;;;;;;;;;;1.40;99.90;;;;;;5014747;28;20033;-82
2021/12/19 01:30:35;;;;;;;16.60;8.60;;;1.50;99.90;;;;;;4997987;28;19917;-82
2021/12/19 01:33:02;;;;;;;18.15;8.35;;;1.40;99.90;;;;;;5016852;28;20041;-83
2021/12/19 01:35:28;;;;;;;16.40;8.77;;;1.50;99.90;;;;;;5021490;28;20124;-79
2021/12/19 01:37:54;;;;;;;18.02;9.50;;;1.50;99.90;;;;;;5005012;28;20033;-80
2021/12/19 01:40:20;;;;;;;;;;;1.70;99.90;;;;;;5005146;28;20035;-82
2021/12/19 01:42:49;;;;;;;30.33;12.38;;;1.60;99.90;;;;;;5021446;28;19906;-84
2021/12/19 01:45:29;;;;;;;18.95;8.68;;;1.70;99.90;;;;;;5021259;28;20018;-83
2021/12/19 01:47:56;;;;;;;19.02;9.15;;;1.70;99.90;;;;;;5021551;28;20029;-80
2021/12/19 01:50:22;;;;;;;17.95;8.07;;;1.70;99.90;;;;;;5004626;28;20018;-84
2021/12/19 01:52:49;;;;;;;15.18;7.65;;;1.70;99.90;;;;;;5021107;28;20034;-80
2021/12/19 01:55:16;;;;;;;16.98;8.32;;;1.80;99.90;;;;;;5019748;28;20018;-85
2021/12/19 01:57:42;;;;;;;18.83;8.40;;;1.80;99.90;;;;;;5018975;28;20042;-84
2021/12/19 02:00:16;;;;;;;;;;;1.80;99.90;;;;;;5019736;28;20041;-85
2021/12/19 02:02:42;;;;;;;15.93;7.78;;;2.00;99.90;;;;;;5003786;28;19924;-83
2021/12/19 02:05:08;;;;;;;;;;;2.00;99.90;;;;;;5021210;28;20018;-85
2021/12/19 02:07:34;;;;;;;15.57;8.27;;;2.10;99.90;;;;;;5020920;28;19894;-82
2021/12/19 02:09:59;;;;;;;;;;;2.20;99.90;;;;;;5021385;28;20010;-79
2021/12/19 02:12:25;;;;;;;13.27;7.15;;;2.20;99.90;;;;;;5004171;28;19917;-82
2021/12/19 02:14:51;;;;;;;13.13;7.30;;;2.30;99.90;;;;;;5020467;28;20045;-84
2021/12/19 02:48:39;;;;;;;16.27;8.23;;;1.90;99.90;;;;;;5015371;28;20037;-82
2021/12/19 02:51:06;;;;;;;;;;;1.80;99.90;;;;;;5016139;28;20042;-82
2021/12/19 02:53:37;;;;;;;11.80;6.25;;;1.80;99.90;;;;;;5015431;28;19914;-82
2021/12/19 02:56:06;;;;;;;13.90;6.78;;;1.70;99.90;;;;;;4999049;28;20034;-83
2021/12/19 02:58:35;;;;;;;22.80;7.68;;;1.70;99.90;;;;;;5000180;28;20022;-83
2021/12/19 03:01:05;;;;;;;12.65;7.20;;;1.90;99.90;;;;;;5015609;28;20144;-83
2021/12/19 03:03:31;;;;;;;16.40;8.02;;;2.00;99.90;;;;;;5014615;28;20034;-83
2021/12/19 03:05:57;;;;;;;;;;;2.00;99.90;;;;;;4999019;28;20022;-83
2021/12/19 03:08:23;;;;;;;17.63;8.13;;;1.90;99.90;;;;;;5014949;28;19894;-84
2021/12/19 03:19:22;;;;;;;29.35;12.63;;;1.80;99.90;;;;;;4993621;28;20407;-81
2021/12/19 03:21:48;;;;;;;;;;;1.70;99.90;;;;;;5015301;28;20053;-83
2021/12/19 03:24:14;;;;;;;12.35;6.20;;;1.80;99.90;;;;;;4997364;28;20329;-84
2021/12/19 03:26:40;;;;;;;;;;;1.80;99.90;;;;;;5015102;28;20038;-83
2021/12/19 03:29:06;;;;;;;20.88;7.03;;;1.80;99.90;;;;;;5015034;28;20393;-83
2021/12/19 03:31:31;;;;;;;;;;;1.80;99.90;;;;;;5015022;28;20042;-82
2021/12/19 03:33:59;;;;;;;12.85;6.00;;;1.80;99.90;;;;;;5015669;28;19921;-83
2021/12/19 03:36:25;;;;;;;15.35;8.40;;;1.80;99.90;;;;;;4999297;28;20029;-82
2021/12/19 03:38:57;;;;;;;;;;;1.70;99.90;;;;;;4998840;28;20033;-83
2021/12/19 03:41:26;;;;;;;9.48;5.78;;;1.70;99.90;;;;;;5015456;28;19906;-83
2021/12/19 03:43:52;;;;;;;12.70;6.63;;;1.70;99.90;;;;;;4997756;28;20080;-84
2021/12/19 03:46:18;;;;;;;;;;;1.80;99.90;;;;;;5015690;28;20018;-83
2021/12/19 03:48:44;;;;;;;16.45;7.90;;;1.70;99.90;;;;;;5015454;28;19906;-83
2021/12/19 03:51:10;;;;;;;;;;;1.80;99.90;;;;;;4998722;28;20022;-83
2021/12/19 03:53:36;;;;;;;14.05;7.65;;;1.70;99.90;;;;;;4997481;28;19909;-83
2021/12/19 03:56:02;;;;;;;;;;;1.80;99.90;;;;;;5017694;28;20026;-83
2021/12/19 03:58:28;;;;;;;16.45;8.63;;;1.80;99.90;;;;;;5002409;28;19906;-83
2021/12/19 04:00:59;;;;;;;14.57;7.88;;;1.90;99.90;;;;;;5002128;28;20022;-83
2021/12/19 04:03:25;;;;;;;18.45;8.90;;;1.90;99.90;;;;;;5002677;28;20046;-83
2021/12/19 04:05:51;;;;;;;;;;;2.00;99.90;;;;;;5002224;28;20042;-84
2021/12/19 04:08:18;;;;;;;21.70;10.90;;;2.00;99.90;;;;;;5001378;28;19912;-83
2021/12/19 04:10:46;;;;;;;17.00;8.77;;;2.00;99.90;;;;;;5001725;28;20042;-83
2021/12/19 04:13:13;;;;;;;18.85;9.38;;;2.10;99.90;;;;;;5001057;28;20057;-83
2021/12/19 04:15:39;;;;;;;24.30;13.68;;;2.10;99.90;;;;;;5018964;28;20061;-82
2021/12/19 04:18:05;;;;;;;;;;;2.00;99.90;;;;;;5018822;28;20025;-83
2021/12/19 04:20:32;;;;;;;26.02;11.90;;;2.10;99.90;;;;;;5019586;28;19902;-82
2021/12/19 04:22:58;;;;;;;23.23;13.18;;;2.10;99.90;;;;;;5004255;28;20010;-84
2021/12/19 04:25:24;;;;;;;;;;;2.10;99.90;;;;;;5021291;28;20046;-83
2021/12/19 04:27:50;;;;;;;24.83;13.60;;;1.90;99.90;;;;;;5020921;28;19890;-84
2021/12/19 04:33:02;;;;;;;25.15;13.35;;;2.00;99.90;;;;;;5537919;23;20050;-84
2021/12/19 04:35:32;;;;;;;25.40;13.68;;;1.90;99.90;;;;;;5020230;28;20014;-84
2021/12/19 04:41:39;;;;;;;30.23;13.25;;;1.90;99.90;;;;;;4934328;28;20032;-84
2021/12/19 04:57:42;;;;;;;22.27;11.40;;;1.70;99.90;;;;;;5020202;28;20022;-83
2021/12/19 05:00:13;;;;;;;22.42;11.93;;;1.70;99.90;;;;;;5003851;28;20087;-84
2021/12/19 05:02:50;;;;;;;22.88;12.57;;;1.60;99.90;;;;;;5002984;28;20018;-84
2021/12/19 05:16:04;;;;;;;18.00;9.45;;;1.70;99.90;;;;;;5020314;28;20052;-84
2021/12/19 05:18:34;;;;;;;26.02;11.63;;;1.70;99.90;;;;;;5002919;28;20037;-84
2021/12/19 05:21:12;;;;;;;19.20;9.57;;;1.60;99.90;;;;;;5003109;28;20010;-84
2021/12/19 05:24:03;;;;;;;23.48;10.55;;;1.70;99.90;;;;;;5019752;28;20050;-83
2021/12/19 05:26:24;;;;;;;13.85;7.25;;;1.70;99.90;;;;;;5020235;28;20045;-83
2021/12/19 05:28:52;;;;;;;16.60;7.60;;;1.80;99.90;;;;;;5003970;28;20023;-84
2021/12/19 05:31:19;;;;;;;14.60;7.82;;;1.80;99.90;;;;;;5020095;28;20045;-84
2021/12/19 05:33:46;;;;;;;19.92;8.60;;;1.80;99.90;;;;;;5002628;28;20050;-84
2021/12/19 05:46:53;;;;;;;21.92;9.50;;;1.30;99.90;;;;;;5019806;28;20037;-83
2021/12/19 05:49:20;;;;;;;20.55;9.27;;;1.30;99.90;;;;;;5002527;28;20565;-84
2021/12/19 05:51:46;;;;;;;17.05;9.25;;;1.20;99.90;;;;;;5019206;28;20007;-84
2021/12/19 05:54:13;;;;;;;16.75;8.35;;;1.20;99.90;;;;;;5019395;28;20010;-84
2021/12/19 05:56:39;;;;;;;16.05;7.68;;;1.30;99.90;;;;;;5019909;28;20021;-82
2021/12/19 05:59:06;;;;;;;17.42;7.75;;;1.20;99.90;;;;;;5020515;28;20038;-84
2021/12/19 06:01:32;;;;;;;17.02;7.40;;;1.30;99.90;;;;;;5004145;28;20039;-81
2021/12/19 06:03:58;;;;;;;12.43;5.47;;;1.30;99.90;;;;;;5020523;28;20037;-81
2021/12/19 06:06:26;;;;;;;;;;;1.30;99.90;;;;;;5021141;28;20038;-82
2021/12/19 06:08:53;;;;;;;15.43;6.30;;;1.40;99.90;;;;;;5003239;28;19909;-84
2021/12/19 06:11:19;;;;;;;14.02;6.97;;;1.20;99.90;;;;;;5002613;28;20098;-84
2021/12/19 06:13:44;;;;;;;;;;;1.20;99.90;;;;;;5019105;28;20023;-84
2021/12/19 06:16:10;;;;;;;15.05;8.45;;;1.20;99.90;;;;;;5002457;28;19890;-84
2021/12/19 06:18:36;;;;;;;;;;;1.20;99.90;;;;;;5001525;28;20018;-84
2021/12/19 06:21:03;;;;;;;22.77;10.95;;;1.10;99.90;;;;;;5001758;28;19910;-83
2021/12/19 06:23:29;;;;;;;17.13;8.63;;;1.30;99.90;;;;;;5018623;28;19998;-84
2021/12/19 06:25:55;;;;;;;;;;;1.30;99.90;;;;;;5003557;28;20024;-84
2021/12/19 06:28:21;;;;;;;18.92;10.18;;;1.30;99.90;;;;;;5019308;28;19890;-84
2021/12/19 06:30:47;;;;;;;13.43;7.78;;;1.30;99.90;;;;;;5002681;28;20160;-85
2021/12/19 06:33:13;;;;;;;;;;;1.40;99.90;;;;;;5018514;28;20046;-85
2021/12/19 06:35:40;;;;;;;16.70;7.85;;;1.20;99.90;;;;;;5017642;28;19969;-84
2021/12/19 06:38:06;;;;;;;14.65;8.25;;;1.20;99.90;;;;;;5018025;28;20055;-84
2021/12/19 06:40:33;;;;;;;18.63;9.23;;;1.20;99.90;;;;;;5017767;28;20045;-83
2021/12/19 06:42:59;;;;;;;17.52;9.40;;;1.20;99.90;;;;;;5000457;28;20094;-83
2021/12/19 06:45:26;;;;;;;20.58;9.75;;;1.20;99.90;;;;;;5000063;28;20031;-83
2021/12/19 06:47:53;;;;;;;18.85;10.02;;;1.20;99.90;;;;;;5000705;28;20033;-83
2021/12/19 06:50:19;;;;;;;25.10;13.18;;;1.20;99.90;;;;;;5017133;28;20038;-84
2021/12/19 06:52:47;;;;;;;22.13;11.20;;;1.20;99.90;;;;;;5017386;28;20046;-83
2021/12/19 06:55:14;;;;;;;24.20;11.95;;;1.20;99.90;;;;;;4999981;28;20035;-83
2021/12/19 06:57:43;;;;;;;28.85;15.75;;;1.20;99.90;;;;;;5017494;28;20014;-82
2021/12/19 07:00:14;;;;;;;24.92;14.63;;;1.20;99.90;;;;;;5018023;28;20097;-84
2021/12/19 07:02:40;;;;;;;24.17;12.70;;;1.20;99.90;;;;;;5017297;28;20046;-83
2021/12/19 07:05:06;;;;;;;;;;;1.30;99.90;;;;;;5017460;28;20030;-83
2021/12/19 07:07:32;;;;;;;28.17;14.48;;;1.50;99.90;;;;;;5017378;28;19912;-84
2021/12/19 07:09:58;;;;;;;30.55;17.58;;;1.70;99.90;;;;;;5017135;28;20022;-83
2021/12/19 07:12:27;;;;;;;21.88;13.07;;;1.80;99.90;;;;;;5017218;28;20090;-83
2021/12/19 07:17:29;;;;;;;21.25;13.73;;;2.20;99.90;;;;;;5081942;23;20058;-84
2021/12/19 07:19:54;;;;;;;;;;;2.50;99.90;;;;;;5001000;28;20036;-84
2021/12/19 07:22:20;;;;;;;22.40;11.82;;;2.90;99.90;;;;;;5017323;28;19906;-84
2021/12/19 07:24:46;;;;;;;;;;;3.30;99.90;;;;;;5017654;28;20011;-84
2021/12/19 07:27:16;;;;;;;21.60;12.68;;;3.40;99.90;;;;;;5001035;28;19897;-85
2021/12/19 07:29:42;;;;;;;29.75;17.92;;;3.60;99.90;;;;;;5017121;28;20039;-83
2021/12/19 07:32:08;;;;;;;;;;;3.70;99.90;;;;;;5018452;28;20034;-83
2021/12/19 07:34:36;;;;;;;30.48;17.52;;;3.90;99.90;;;;;;5001563;28;19898;-84
2021/12/19 07:37:03;;;;;;;22.85;15.05;;;4.00;99.90;;;;;;5018250;28;20005;-84
2021/12/19 07:42:05;;;;;;;29.27;16.73;;;4.10;99.90;;;;;;5018496;28;20022;-84
2021/12/19 07:44:31;;;;;;;122.82;71.05;;;4.40;99.90;;;;;;5018915;28;20038;-84
2021/12/19 07:46:57;;;;;;;38.63;21.65;;;4.60;99.90;;;;;;5018864;28;20046;-84
2021/12/19 07:49:23;;;;;;;;;;;5.00;99.90;;;;;;5019664;28;20026;-83
2021/12/19 07:51:48;;;;;;;20.75;11.98;;;5.50;99.90;;;;;;5002443;28;19894;-83
2021/12/19 07:54:14;;;;;;;;;;;5.60;99.90;;;;;;5019499;28;20078;-84
2021/12/19 07:56:40;;;;;;;18.20;11.70;;;5.70;99.90;;;;;;5002354;28;19982;-84
2021/12/19 07:59:06;;;;;;;;;;;5.70;99.90;;;;;;5002644;28;20014;-82
2021/12/19 08:01:33;;;;;;;16.90;10.77;;;5.80;99.90;;;;;;5002499;28;19894;-82
2021/12/19 08:03:58;;;;;;;17.05;10.82;;;6.20;99.90;;;;;;5019154;28;20086;-83
2021/12/19 08:06:24;;;;;;;;;;;6.50;99.90;;;;;;5002889;28;20038;-82
2021/12/19 08:08:53;;;;;;;20.75;10.50;;;6.80;99.90;;;;;;5019320;28;19917;-82
2021/12/19 08:11:41;;;;;;;14.68;9.65;;;7.00;99.90;;;;;;5002661;28;20014;-83
2021/12/19 13:27:35;;;;;;;8.57;3.20;;;7.80;99.90;;;;;;5063205;23;20031;-76
2021/12/19 13:30:09;;;;;;;9.65;5.15;;;7.80;99.90;;;;;;5023643;28;20030;-79
2021/12/19 13:32:46;;;;;;;19.00;9.90;;;7.90;99.90;;;;;;5024588;28;20040;-82
2021/12/19 13:35:21;;;;;;;21.00;7.60;;;7.80;99.90;;;;;;5024184;28;20056;-79
2021/12/19 13:37:56;;;;;;;73.47;28.08;;;7.80;99.90;;;;;;5024478;28;20010;-81
2021/12/19 13:40:28;;;;;;;270.65;111.13;;;7.80;99.90;;;;;;5024640;28;20010;-78
2021/12/19 13:43:09;;;;;;;131.10;55.78;;;7.70;99.90;;;;;;5041336;28;20017;-78
2021/12/19 13:45:43;;;;;;;66.18;28.05;;;7.90;99.90;;;;;;5041332;28;21307;-81
2021/12/19 13:48:38;;;;;;;30.00;12.00;;;7.80;99.90;;;;;;5041185;28;20018;-81
2021/12/19 13:51:21;;;;;;;20.13;9.32;;;7.90;99.90;;;;;;5024186;28;20036;-83
2021/12/19 13:53:55;;;;;;;64.20;33.17;;;7.90;99.90;;;;;;5040928;28;20037;-79
2021/12/19 13:56:25;;;;;;;62.13;31.77;;;7.90;99.90;;;;;;5040997;28;20057;-82
2021/12/19 13:58:55;;;;;;;16.10;8.57;;;7.70;99.90;;;;;;5040589;28;20092;-84
2021/12/19 14:01:23;;;;;;;23.25;12.13;;;7.70;99.90;;;;;;5040892;28;20010;-78
2021/12/19 14:03:57;;;;;;;41.25;22.02;;;7.60;99.90;;;;;;5041023;28;20014;-79
2021/12/19 14:06:31;;;;;;;33.00;17.90;;;7.50;99.90;;;;;;5023991;28;20038;-78
2021/12/19 14:08:59;;;;;;;75.75;42.63;;;7.40;99.90;;;;;;5040987;28;20086;-79
2021/12/19 14:11:27;;;;;;;80.70;42.30;;;7.20;99.90;;;;;;5040637;28;20034;-81
2021/12/19 14:53:14;;;;;;;372.95;178.27;;;4.60;99.90;;;;;;5196587;23;20061;-81
2021/12/19 14:55:49;;;;;;;75.20;37.30;;;4.40;99.90;;;;;;5003182;28;20042;-85
2021/12/19 14:58:16;;;;;;;62.60;34.10;;;4.10;99.90;;;;;;5020218;28;20042;-83
2021/12/19 15:00:46;;;;;;;34.67;19.90;;;4.10;99.90;;;;;;5002866;28;20046;-82
2021/12/19 15:03:12;;;;;;;172.18;75.68;;;4.00;99.90;;;;;;5019401;28;20022;-82
2021/12/19 15:05:42;;;;;;;;;;;3.90;99.90;;;;;;5019433;28;20038;-83
2021/12/19 15:46:59;;;;;;;21.98;11.52;;;3.40;99.90;;;;;;5257719;22;20043;-86
2021/12/19 15:49:25;;;;;;;;;;;3.50;99.90;;;;;;5000114;28;20054;-83
2021/12/19 15:51:51;;;;;;;27.08;14.02;;;3.60;99.90;;;;;;5002914;28;19900;-84
2021/12/19 15:54:26;;;;;;;19.02;8.93;;;3.70;99.90;;;;;;4986430;28;20030;-85
2021/12/19 15:56:52;;;;;;;11.88;5.45;;;3.80;99.90;;;;;;5003546;28;20045;-84
2021/12/19 15:59:17;;;;;;;;;;;4.00;99.90;;;;;;4987390;28;20079;-82
2021/12/19 16:01:43;;;;;;;11.27;6.00;;;4.00;99.90;;;;;;5004079;28;19918;-77
2021/12/19 16:04:09;;;;;;;;;;;4.10;99.90;;;;;;4987681;28;20037;-80
2021/12/19 16:06:35;;;;;;;7.90;5.35;;;4.00;99.90;;;;;;5003926;28;19894;-81
2021/12/19 16:09:00;;;;;;;;;;;4.10;99.90;;;;;;5004314;28;20035;-78
2021/12/19 16:11:26;;;;;;;11.93;6.07;;;4.10;99.90;;;;;;5003873;28;19917;-81
2021/12/19 16:29:33;;;;;;;13.25;6.97;;;4.10;99.90;;;;;;5408718;23;20039;-80
2021/12/19 16:32:00;;;;;;;;;;;4.00;99.90;;;;;;4985857;28;20641;-83
2021/12/19 16:34:27;;;;;;;11.77;6.40;;;4.10;99.90;;;;;;4986402;28;19902;-82
2021/12/19 16:36:54;;;;;;;12.55;5.95;;;4.00;99.90;;;;;;5002848;28;20031;-84
2021/12/19 16:39:22;;;;;;;10.52;6.10;;;4.00;99.90;;;;;;5000827;28;20018;-84
2021/12/19 16:52:32;;;;;;;22.48;12.68;;;4.00;99.90;;;;;;5739776;23;20144;-80
2021/12/19 16:54:59;;;;;;;22.02;13.00;;;3.90;99.90;;;;;;5020031;28;20039;-84
2021/12/19 16:57:25;;;;;;;18.08;11.45;;;3.90;99.90;;;;;;5020048;28;19999;-84
2021/12/19 16:59:51;;;;;;;15.38;9.68;;;3.90;99.90;;;;;;5019485;28;20046;-84
2021/12/19 17:02:16;;;;;;;;;;;3.90;99.90;;;;;;5019166;28;20037;-83
2021/12/19 17:04:42;;;;;;;9.75;6.15;;;3.90;99.90;;;;;;5003087;28;19912;-84
2021/12/19 17:07:08;;;;;;;;;;;3.90;99.90;;;;;;5020571;28;20022;-85
2021/12/19 17:09:34;;;;;;;9.10;5.03;;;4.00;99.90;;;;;;5003779;28;19949;-85
2021/12/19 17:12:06;;;;;;;;;;;4.00;99.90;;;;;;5021990;28;20003;-83
2021/12/19 17:14:32;;;;;;;25.25;9.93;;;4.10;99.90;;;;;;5021836;28;19902;-79
2021/12/19 17:16:59;;;;;;;;;;;4.10;99.90;;;;;;5021977;28;20034;-78
2021/12/19 17:19:25;;;;;;;47.42;24.90;;;4.20;99.90;;;;;;5019731;28;19977;-84
2021/12/19 17:21:52;;;;;;;10.57;5.95;;;4.20;99.90;;;;;;5020485;28;20039;-84
2021/12/19 17:24:18;;;;;;;13.57;5.55;;;4.20;99.90;;;;;;5001774;28;20023;-83
2021/12/19 17:26:46;;;;;;;;;;;4.40;99.90;;;;;;5002026;28;20033;-84
2021/12/19 17:29:15;;;;;;;;;;;4.50;99.90;;;;;;5003421;28;19894;-84
2021/12/19 17:34:16;;;;;;;7.90;4.70;;;4.60;99.90;;;;;;5243994;23;20063;-83
2021/12/19 17:36:42;;;;;;;;;;;4.60;99.90;;;;;;5002119;28;20894;-84
2021/12/19 17:39:09;;;;;;;7.60;4.78;;;4.70;99.90;;;;;;4984775;28;19970;-83
2021/12/19 17:41:36;;;;;;;8.98;5.45;;;4.60;99.90;;;;;;5001854;28;20015;-84
2021/12/19 17:44:03;;;;;;;5.18;3.70;;;4.60;99.90;;;;;;5001558;28;20019;-80
2021/12/19 17:46:30;;;;;;;7.05;4.70;;;4.60;99.90;;;;;;5001800;28;20042;-83
2021/12/19 17:48:57;;;;;;;6.63;4.72;;;4.60;99.90;;;;;;5001914;28;20007;-83
2021/12/19 17:51:23;;;;;;;6.82;4.72;;;4.60;99.90;;;;;;5001601;28;20019;-83
2021/12/19 17:53:49;;;;;;;;;;;4.60;99.90;;;;;;4985605;28;20025;-80
2021/12/19 17:56:16;;;;;;;8.57;5.05;;;4.60;99.90;;;;;;5001778;28;19902;-82
2021/12/19 17:58:42;;;;;;;8.02;4.97;;;4.60;99.90;;;;;;5001499;28;20083;-84
2021/12/19 18:01:11;;;;;;;8.60;4.93;;;4.60;99.90;;;;;;4984394;28;20035;-83
2021/12/19 18:03:40;;;;;;;8.23;5.82;;;4.60;99.90;;;;;;5001168;28;20014;-82
2021/12/19 18:06:07;;;;;;;8.48;5.07;;;4.60;99.90;;;;;;5001136;28;20011;-84
2021/12/19 18:08:33;;;;;;;9.73;5.47;;;4.60;99.90;;;;;;4984444;28;20038;-83
2021/12/19 18:11:03;;;;;;;;;;;4.60;99.90;;;;;;5001743;28;20071;-84
2021/12/19 18:13:30;;;;;;;9.30;5.20;;;4.60;99.90;;;;;;5000638;28;19917;-84
2021/12/19 18:16:03;;;;;;;8.30;4.85;;;4.50;99.90;;;;;;5000897;28;20086;-82
2021/12/19 18:18:32;;;;;;;10.27;5.00;;;4.50;99.90;;;;;;5001293;28;20011;-83
2021/12/19 18:21:00;;;;;;;9.73;5.50;;;4.50;99.90;;;;;;5001422;28;20026;-83
2021/12/19 18:23:26;;;;;;;18.02;8.80;;;4.40;99.90;;;;;;5000878;28;20031;-80
2021/12/19 18:25:52;;;;;;;;;;;4.50;99.90;;;;;;5001623;28;20022;-84
2021/12/19 18:28:19;;;;;;;11.48;7.00;;;4.50;99.90;;;;;;5001164;28;19894;-81
2021/12/19 18:30:45;;;;;;;14.57;8.95;;;4.50;99.90;;;;;;4999836;28;20039;-82
2021/12/19 18:33:13;;;;;;;10.65;6.72;;;4.50;99.90;;;;;;4984380;28;20034;-84
2021/12/19 18:35:39;;;;;;;12.57;7.72;;;4.50;99.90;;;;;;5000895;28;20014;-83
2021/12/19 18:38:08;;;;;;;10.75;6.82;;;4.50;99.90;;;;;;4984132;28;20042;-82
2021/12/19 18:40:37;;;;;;;16.70;9.35;;;4.40;99.90;;;;;;4984143;28;20078;-84
2021/12/19 18:45:45;;;;;;;12.82;8.68;;;4.30;99.90;;;;;;5000635;28;20050;-84
2021/12/19 18:55:59;;;;;;;11.65;5.53;;;4.40;99.90;;;;;;5000334;28;20029;-83
2021/12/19 18:58:28;;;;;;;7.60;5.43;;;4.30;99.90;;;;;;4983663;28;20058;-84
2021/12/19 19:01:01;;;;;;;11.38;6.82;;;4.30;99.90;;;;;;4983927;28;20014;-82
2021/12/19 19:06:07;;;;;;;10.43;5.85;;;4.40;99.90;;;;;;5000472;28;20022;-85
2021/12/19 19:08:33;;;;;;;13.43;8.45;;;4.40;99.90;;;;;;5000412;28;20010;-85
2021/12/19 19:40:26;;;;;;;23.17;12.20;;;4.40;99.90;;;;;;5805820;23;20066;-77
2021/12/19 19:51:05;;;;;;;6.53;3.53;;;4.50;99.90;;;;;;4997214;28;20091;-85
2021/12/19 19:53:31;;;;;;;;;;;4.40;99.90;;;;;;4997399;28;20015;-85
2021/12/19 19:55:59;;;;;;;7.10;3.75;;;4.50;99.90;;;;;;4999177;28;19981;-86
2021/12/19 19:58:25;;;;;;;6.53;4.03;;;4.40;99.90;;;;;;4998490;28;20015;-84
2021/12/19 20:00:50;;;;;;;;;;;4.30;99.90;;;;;;4980571;28;20038;-82
2021/12/19 20:03:17;;;;;;;5.15;3.53;;;4.30;99.90;;;;;;4981769;28;19922;-83
2021/12/19 20:05:46;;;;;;;5.75;3.60;;;4.20;99.90;;;;;;4983020;28;20082;-84
2021/12/19 20:08:12;;;;;;;5.30;3.05;;;4.20;99.90;;;;;;4999397;28;20043;-84
2021/12/19 20:33:56;;;;;;;6.50;3.45;;;4.10;99.90;;;;;;5982526;22;20042;-78
2021/12/19 20:36:22;;;;;;;;;;;4.10;99.90;;;;;;5001612;28;20034;-82
2021/12/19 20:38:47;;;;;;;5.30;3.28;;;4.20;99.90;;;;;;5021526;28;19961;-81
2021/12/19 20:41:15;;;;;;;;;;;4.20;99.90;;;;;;5022392;28;20019;-81
2021/12/19 20:43:42;;;;;;;7.47;4.22;;;4.10;99.90;;;;;;5003234;28;19924;-82
2021/12/19 20:46:07;;;;;;;6.95;3.90;;;4.20;99.90;;;;;;5005078;28;20021;-82
2021/12/19 20:48:36;;;;;;;;;;;4.20;99.90;;;;;;5005281;28;20030;-82
2021/12/19 20:51:03;;;;;;;6.40;3.28;;;4.30;99.90;;;;;;5005174;28;19912;-83
2021/12/19 20:53:30;;;;;;;7.97;3.78;;;4.40;99.90;;;;;;5021982;28;20011;-79
2021/12/19 20:55:59;;;;;;;7.22;4.20;;;4.40;99.90;;;;;;5005478;28;20033;-83
2021/12/19 20:58:25;;;;;;;6.22;4.00;;;4.40;99.90;;;;;;5022215;28;20046;-84
2021/12/19 21:00:51;;;;;;;;;;;4.40;99.90;;;;;;5022472;28;20037;-85
2021/12/19 21:03:21;;;;;;;6.57;4.40;;;4.40;99.90;;;;;;5022112;28;19910;-82
2021/12/19 21:05:47;;;;;;;6.15;4.05;;;4.40;99.90;;;;;;5005098;28;20038;-84
2021/12/19 21:08:13;;;;;;;;;;;4.30;99.90;;;;;;5022169;28;20026;-83
2021/12/19 21:39:37;;;;;;;7.38;4.78;;;3.90;99.90;;;;;;5001604;28;20043;-85
2021/12/19 21:42:03;;;;;;;;;;;3.90;99.90;;;;;;5001557;28;20019;-82
2021/12/19 21:44:29;;;;;;;8.10;4.78;;;3.90;99.90;;;;;;4984847;28;19898;-84
2021/12/19 21:46:54;;;;;;;;;;;3.80;99.90;;;;;;5002089;28;20010;-83
2021/12/19 21:49:20;;;;;;;10.00;5.88;;;3.80;99.90;;;;;;4984457;28;19910;-84
2021/12/19 21:51:46;;;;;;;;;;;3.70;99.90;;;;;;5001716;28;20038;-82
2021/12/19 21:54:12;;;;;;;7.82;5.00;;;3.70;99.90;;;;;;5000625;28;19958;-85
2021/12/19 21:56:41;;;;;;;7.90;5.03;;;3.60;99.90;;;;;;5001506;28;20082;-83
2021/12/19 21:59:07;;;;;;;8.75;5.45;;;3.70;99.90;;;;;;4984558;28;20007;-84
2021/12/19 22:01:34;;;;;;;;;;;3.60;99.90;;;;;;4984573;28;20086;-84
2021/12/19 22:04:00;;;;;;;8.07;5.43;;;3.60;99.90;;;;;;4984542;28;19895;-84
2021/12/19 22:06:26;;;;;;;;;;;3.60;99.90;;;;;;5001605;28;20034;-86
2021/12/19 22:08:55;;;;;;;9.07;5.90;;;3.60;99.90;;;;;;5001481;28;19901;-84
2021/12/19 22:11:25;;;;;;;7.50;5.43;;;3.60;99.90;;;;;;5001512;28;20010;-85
2021/12/19 22:16:30;;;;;;;;;;;3.60;99.90;;;;;;5001680;28;20025;-82
2021/12/19 22:18:56;;;;;;;9.50;6.75;;;3.60;99.90;;;;;;4984771;28;19933;-84
2021/12/19 22:21:22;;;;;;;;;;;3.60;99.90;;;;;;5001595;28;20018;-84
2021/12/19 22:23:48;;;;;;;9.27;6.47;;;3.60;99.90;;;;;;5001203;28;19918;-85
2021/12/19 22:26:14;;;;;;;;;;;3.60;99.90;;;;;;5000586;28;20029;-82
2021/12/19 22:28:44;;;;;;;8.00;5.32;;;3.60;99.90;;;;;;4984510;28;19894;-83
2021/12/19 22:31:11;;;;;;;10.30;6.20;;;3.50;99.90;;;;;;4984366;28;20090;-84
2021/12/19 22:33:37;;;;;;;11.18;6.90;;;3.50;99.90;;;;;;4983569;28;20050;-85
2021/12/19 22:36:04;;;;;;;12.95;8.98;;;3.50;99.90;;;;;;5000601;28;20039;-84
2021/12/19 22:38:30;;;;;;;11.07;8.40;;;3.50;99.90;;;;;;5001001;28;20019;-84
2021/12/19 22:40:57;;;;;;;11.20;7.78;;;3.50;99.90;;;;;;4984352;28;20021;-80
2021/12/19 22:43:24;;;;;;;12.07;7.53;;;3.50;99.90;;;;;;5001153;28;20015;-82
2021/12/19 22:45:50;;;;;;;14.05;7.03;;;3.60;99.90;;;;;;5001052;28;20015;-81
2021/12/19 22:48:16;;;;;;;;;;;3.60;99.90;;;;;;4984061;28;20027;-85
2021/12/19 22:50:43;;;;;;;10.45;5.82;;;3.60;99.90;;;;;;4983725;28;19901;-84
2021/12/19 22:53:09;;;;;;;6.80;5.07;;;3.70;99.90;;;;;;4983702;28;20019;-84
2021/12/19 22:55:35;;;;;;;;;;;3.70;99.90;;;;;;5001219;28;20027;-77
2021/12/19 22:58:04;;;;;;;7.03;5.33;;;3.60;99.90;;;;;;4984315;28;19932;-77
2021/12/19 23:00:36;;;;;;;9.38;4.65;;;3.60;99.90;;;;;;4983748;28;20050;-78
2021/12/19 23:03:08;;;;;;;7.25;4.97;;;3.60;99.90;;;;;;5000890;28;20041;-80
2021/12/19 23:05:35;;;;;;;6.75;4.70;;;3.50;99.90;;;;;;5000706;28;20019;-77
